Terminal Aerodrome Forecast
Issued by NWS Green Bay, WI

Home | Current Version | Previous Version | Text Only | Print | Product List | Glossary On
Versions: 1 2 3 4 5 6 7 8 9 10 11 12 13 14 15 16 17 18 19 20 21 22 23 24 25 26 27
000
FTUS43 KGRB 262059 AAB
TAFGRB
TAF AMD
KGRB 262059Z 2621/2718 26010G17KT P6SM SCT050
     FM270400 15004KT 4SM BR SCT008 BKN250
      TEMPO 2708/2712 1 1/2SM BR BKN005
     FM271500 15008KT 5SM -SHRA BR BKN025 OVC060=

USA.gov is the U.S. government's official web portal to all federal, state and local government web resources and services.